sensor_id;sensor_type;location;lat;lon;timestamp;P1;durP1;ratioP1;P2;durP2;ratioP2
6089;SDS011;3073;42.660;23.316;2023-07-29T00:01:55;8.37;;;3.67;;
6089;SDS011;3073;42.660;23.316;2023-07-29T00:04:21;4.53;;;3.30;;
6089;SDS011;3073;42.660;23.316;2023-07-29T00:06:48;8.30;;;3.17;;
6089;SDS011;3073;42.660;23.316;2023-07-29T00:09:15;5.70;;;4.03;;
6089;SDS011;3073;42.660;23.316;2023-07-29T00:11:42;4.10;;;3.33;;
6089;SDS011;3073;42.660;23.316;2023-07-29T00:14:10;5.77;;;3.73;;
6089;SDS011;3073;42.660;23.316;2023-07-29T00:16:37;6.77;;;3.80;;
6089;SDS011;3073;42.660;23.316;2023-07-29T00:19:03;5.60;;;3.47;;
6089;SDS011;3073;42.660;23.316;2023-07-29T00:21:30;7.63;;;3.50;;
6089;SDS011;3073;42.660;23.316;2023-07-29T00:23:57;10.70;;;3.77;;
6089;SDS011;3073;42.660;23.316;2023-07-29T00:26:26;5.40;;;3.37;;
6089;SDS011;3073;42.660;23.316;2023-07-29T00:28:54;7.80;;;3.60;;
6089;SDS011;3073;42.660;23.316;2023-07-29T00:31:22;7.30;;;3.33;;
6089;SDS011;3073;42.660;23.316;2023-07-29T00:33:49;5.87;;;3.67;;
6089;SDS011;3073;42.660;23.316;2023-07-29T00:36:18;4.30;;;3.37;;
6089;SDS011;3073;42.660;23.316;2023-07-29T00:38:44;4.97;;;3.37;;
6089;SDS011;3073;42.660;23.316;2023-07-29T00:41:11;14.70;;;4.00;;
6089;SDS011;3073;42.660;23.316;2023-07-29T00:43:39;6.37;;;3.80;;
6089;SDS011;3073;42.660;23.316;2023-07-29T00:46:07;6.60;;;3.93;;
6089;SDS011;3073;42.660;23.316;2023-07-29T00:48:37;7.00;;;3.57;;
6089;SDS011;3073;42.660;23.316;2023-07-29T00:51:04;10.70;;;4.00;;
6089;SDS011;3073;42.660;23.316;2023-07-29T00:53:31;4.60;;;2.93;;
6089;SDS011;3073;42.660;23.316;2023-07-29T00:55:58;5.53;;;3.50;;
6089;SDS011;3073;42.660;23.316;2023-07-29T00:58:26;6.80;;;3.70;;
6089;SDS011;3073;42.660;23.316;2023-07-29T01:00:53;6.23;;;3.80;;
6089;SDS011;3073;42.660;23.316;2023-07-29T01:03:20;9.37;;;3.97;;
6089;SDS011;3073;42.660;23.316;2023-07-29T01:05:50;4.40;;;3.60;;
6089;SDS011;3073;42.660;23.316;2023-07-29T01:08:29;6.50;;;3.80;;
6089;SDS011;3073;42.660;23.316;2023-07-29T01:11:03;9.53;;;3.50;;
6089;SDS011;3073;42.660;23.316;2023-07-29T01:13:44;16.53;;;3.70;;
6089;SDS011;3073;42.660;23.316;2023-07-29T01:16:19;7.13;;;3.60;;
6089;SDS011;3073;42.660;23.316;2023-07-29T01:18:50;4.90;;;3.03;;
6089;SDS011;3073;42.660;23.316;2023-07-29T01:21:22;12.43;;;4.07;;
6089;SDS011;3073;42.660;23.316;2023-07-29T01:23:53;7.43;;;4.30;;
6089;SDS011;3073;42.660;23.316;2023-07-29T01:26:25;8.20;;;3.63;;
6089;SDS011;3073;42.660;23.316;2023-07-29T01:28:53;5.13;;;4.13;;
6089;SDS011;3073;42.660;23.316;2023-07-29T01:31:22;9.10;;;4.67;;
6089;SDS011;3073;42.660;23.316;2023-07-29T01:33:56;8.03;;;3.87;;
6089;SDS011;3073;42.660;23.316;2023-07-29T01:36:28;5.70;;;3.93;;
6089;SDS011;3073;42.660;23.316;2023-07-29T01:39:00;6.07;;;4.27;;
6089;SDS011;3073;42.660;23.316;2023-07-29T01:41:29;5.50;;;4.17;;
6089;SDS011;3073;42.660;23.316;2023-07-29T01:43:56;5.83;;;4.00;;
6089;SDS011;3073;42.660;23.316;2023-07-29T01:46:23;6.00;;;3.83;;
6089;SDS011;3073;42.660;23.316;2023-07-29T01:48:50;6.20;;;4.10;;
6089;SDS011;3073;42.660;23.316;2023-07-29T01:51:16;4.90;;;3.50;;
6089;SDS011;3073;42.660;23.316;2023-07-29T01:53:43;5.50;;;3.57;;
6089;SDS011;3073;42.660;23.316;2023-07-29T01:56:11;5.17;;;3.30;;
6089;SDS011;3073;42.660;23.316;2023-07-29T01:58:38;6.60;;;4.30;;
6089;SDS011;3073;42.660;23.316;2023-07-29T02:01:05;11.40;;;4.10;;
6089;SDS011;3073;42.660;23.316;2023-07-29T02:03:32;12.97;;;4.13;;
6089;SDS011;3073;42.660;23.316;2023-07-29T02:05:59;5.70;;;3.93;;
6089;SDS011;3073;42.660;23.316;2023-07-29T02:08:25;5.43;;;3.70;;
6089;SDS011;3073;42.660;23.316;2023-07-29T02:10:52;6.30;;;3.70;;
6089;SDS011;3073;42.660;23.316;2023-07-29T02:13:20;7.27;;;4.30;;
6089;SDS011;3073;42.660;23.316;2023-07-29T02:15:47;5.23;;;4.23;;
6089;SDS011;3073;42.660;23.316;2023-07-29T02:18:14;6.87;;;3.90;;
6089;SDS011;3073;42.660;23.316;2023-07-29T02:20:40;9.60;;;4.00;;
6089;SDS011;3073;42.660;23.316;2023-07-29T02:23:14;9.47;;;4.00;;
6089;SDS011;3073;42.660;23.316;2023-07-29T02:25:41;7.40;;;4.80;;
6089;SDS011;3073;42.660;23.316;2023-07-29T02:28:07;5.20;;;4.20;;
6089;SDS011;3073;42.660;23.316;2023-07-29T02:30:36;6.80;;;4.30;;
6089;SDS011;3073;42.660;23.316;2023-07-29T02:33:04;4.43;;;3.37;;
6089;SDS011;3073;42.660;23.316;2023-07-29T02:35:31;4.10;;;3.43;;
6089;SDS011;3073;42.660;23.316;2023-07-29T02:37:58;5.00;;;4.07;;
6089;SDS011;3073;42.660;23.316;2023-07-29T02:40:24;5.87;;;3.80;;
6089;SDS011;3073;42.660;23.316;2023-07-29T02:42:52;8.70;;;4.50;;
6089;SDS011;3073;42.660;23.316;2023-07-29T02:45:18;8.20;;;4.30;;
6089;SDS011;3073;42.660;23.316;2023-07-29T02:47:46;5.70;;;4.07;;
6089;SDS011;3073;42.660;23.316;2023-07-29T02:50:13;7.57;;;4.07;;
6089;SDS011;3073;42.660;23.316;2023-07-29T02:52:40;6.13;;;3.80;;
6089;SDS011;3073;42.660;23.316;2023-07-29T02:55:07;6.23;;;4.47;;
6089;SDS011;3073;42.660;23.316;2023-07-29T02:57:34;7.50;;;4.13;;
6089;SDS011;3073;42.660;23.316;2023-07-29T03:00:01;7.00;;;4.57;;
6089;SDS011;3073;42.660;23.316;2023-07-29T03:02:28;6.70;;;4.40;;
6089;SDS011;3073;42.660;23.316;2023-07-29T03:04:57;10.20;;;4.63;;
6089;SDS011;3073;42.660;23.316;2023-07-29T03:07:23;6.73;;;4.30;;
6089;SDS011;3073;42.660;23.316;2023-07-29T03:09:50;8.07;;;3.97;;
6089;SDS011;3073;42.660;23.316;2023-07-29T03:12:17;6.07;;;3.63;;
6089;SDS011;3073;42.660;23.316;2023-07-29T03:14:47;7.67;;;4.33;;
6089;SDS011;3073;42.660;23.316;2023-07-29T03:17:14;7.70;;;4.10;;
6089;SDS011;3073;42.660;23.316;2023-07-29T03:19:42;12.20;;;4.77;;
6089;SDS011;3073;42.660;23.316;2023-07-29T03:22:10;9.60;;;4.60;;
6089;SDS011;3073;42.660;23.316;2023-07-29T03:24:37;11.20;;;4.47;;
6089;SDS011;3073;42.660;23.316;2023-07-29T03:27:04;5.63;;;3.97;;
6089;SDS011;3073;42.660;23.316;2023-07-29T03:29:32;6.17;;;4.07;;
6089;SDS011;3073;42.660;23.316;2023-07-29T03:31:58;8.97;;;4.57;;
6089;SDS011;3073;42.660;23.316;2023-07-29T03:34:25;7.40;;;4.20;;
6089;SDS011;3073;42.660;23.316;2023-07-29T03:36:52;9.20;;;4.70;;
6089;SDS011;3073;42.660;23.316;2023-07-29T03:39:20;7.40;;;4.90;;
6089;SDS011;3073;42.660;23.316;2023-07-29T03:41:47;6.83;;;4.60;;
6089;SDS011;3073;42.660;23.316;2023-07-29T03:44:14;7.97;;;4.50;;
6089;SDS011;3073;42.660;23.316;2023-07-29T03:46:41;12.80;;;5.10;;
6089;SDS011;3073;42.660;23.316;2023-07-29T03:49:08;7.03;;;4.70;;
6089;SDS011;3073;42.660;23.316;2023-07-29T03:51:34;7.80;;;5.17;;
6089;SDS011;3073;42.660;23.316;2023-07-29T03:54:01;11.00;;;5.90;;
6089;SDS011;3073;42.660;23.316;2023-07-29T03:56:29;9.10;;;5.80;;
6089;SDS011;3073;42.660;23.316;2023-07-29T03:59:01;13.13;;;6.20;;
6089;SDS011;3073;42.660;23.316;2023-07-29T04:01:28;9.50;;;5.60;;
6089;SDS011;3073;42.660;23.316;2023-07-29T04:03:55;8.43;;;5.27;;
6089;SDS011;3073;42.660;23.316;2023-07-29T04:06:22;11.30;;;5.90;;
6089;SDS011;3073;42.660;23.316;2023-07-29T04:08:49;8.83;;;6.00;;
6089;SDS011;3073;42.660;23.316;2023-07-29T04:11:15;8.40;;;5.80;;
6089;SDS011;3073;42.660;23.316;2023-07-29T04:13:44;7.37;;;5.57;;
6089;SDS011;3073;42.660;23.316;2023-07-29T04:16:11;8.07;;;5.97;;
6089;SDS011;3073;42.660;23.316;2023-07-29T04:18:38;7.30;;;5.20;;
6089;SDS011;3073;42.660;23.316;2023-07-29T04:21:05;6.67;;;4.67;;
6089;SDS011;3073;42.660;23.316;2023-07-29T04:23:32;6.70;;;5.00;;
6089;SDS011;3073;42.660;23.316;2023-07-29T04:25:59;8.33;;;6.17;;
6089;SDS011;3073;42.660;23.316;2023-07-29T04:28:25;10.70;;;5.50;;
6089;SDS011;3073;42.660;23.316;2023-07-29T04:30:54;10.10;;;5.60;;
6089;SDS011;3073;42.660;23.316;2023-07-29T04:33:21;8.93;;;5.20;;
6089;SDS011;3073;42.660;23.316;2023-07-29T04:35:48;10.10;;;5.00;;
6089;SDS011;3073;42.660;23.316;2023-07-29T04:38:15;8.93;;;4.97;;
6089;SDS011;3073;42.660;23.316;2023-07-29T04:40:42;6.20;;;4.93;;
6089;SDS011;3073;42.660;23.316;2023-07-29T04:43:08;7.63;;;4.73;;
6089;SDS011;3073;42.660;23.316;2023-07-29T04:45:35;5.47;;;4.20;;
6089;SDS011;3073;42.660;23.316;2023-07-29T04:48:03;7.03;;;4.20;;
6089;SDS011;3073;42.660;23.316;2023-07-29T04:50:30;5.43;;;4.43;;
6089;SDS011;3073;42.660;23.316;2023-07-29T04:52:57;8.07;;;5.07;;
6089;SDS011;3073;42.660;23.316;2023-07-29T04:55:24;8.37;;;5.17;;
6089;SDS011;3073;42.660;23.316;2023-07-29T04:57:51;6.83;;;5.00;;
6089;SDS011;3073;42.660;23.316;2023-07-29T05:00:19;9.27;;;5.53;;
6089;SDS011;3073;42.660;23.316;2023-07-29T05:02:46;14.73;;;5.10;;
6089;SDS011;3073;42.660;23.316;2023-07-29T05:05:14;9.13;;;4.30;;
6089;SDS011;3073;42.660;23.316;2023-07-29T05:07:41;4.30;;;3.83;;
6089;SDS011;3073;42.660;23.316;2023-07-29T05:10:08;6.20;;;4.60;;
6089;SDS011;3073;42.660;23.316;2023-07-29T05:12:36;6.47;;;4.33;;
6089;SDS011;3073;42.660;23.316;2023-07-29T05:15:03;4.93;;;3.63;;
6089;SDS011;3073;42.660;23.316;2023-07-29T05:17:31;7.20;;;4.90;;
6089;SDS011;3073;42.660;23.316;2023-07-29T05:19:57;6.13;;;4.50;;
6089;SDS011;3073;42.660;23.316;2023-07-29T05:22:26;6.50;;;3.90;;
6089;SDS011;3073;42.660;23.316;2023-07-29T05:24:52;6.50;;;4.00;;
6089;SDS011;3073;42.660;23.316;2023-07-29T05:27:19;5.40;;;4.33;;
6089;SDS011;3073;42.660;23.316;2023-07-29T05:29:46;4.93;;;3.83;;
6089;SDS011;3073;42.660;23.316;2023-07-29T05:32:13;6.60;;;3.83;;
6089;SDS011;3073;42.660;23.316;2023-07-29T05:34:39;5.73;;;3.83;;
6089;SDS011;3073;42.660;23.316;2023-07-29T05:37:06;10.97;;;4.60;;
6089;SDS011;3073;42.660;23.316;2023-07-29T05:39:35;7.80;;;5.03;;
6089;SDS011;3073;42.660;23.316;2023-07-29T05:42:02;5.87;;;4.30;;
6089;SDS011;3073;42.660;23.316;2023-07-29T05:44:29;4.47;;;3.90;;
6089;SDS011;3073;42.660;23.316;2023-07-29T05:46:56;7.87;;;4.70;;
6089;SDS011;3073;42.660;23.316;2023-07-29T05:49:23;10.43;;;4.53;;
6089;SDS011;3073;42.660;23.316;2023-07-29T05:51:50;13.40;;;4.83;;
6089;SDS011;3073;42.660;23.316;2023-07-29T05:54:21;7.70;;;4.20;;
6089;SDS011;3073;42.660;23.316;2023-07-29T05:56:52;7.37;;;4.33;;
6089;SDS011;3073;42.660;23.316;2023-07-29T05:59:19;8.60;;;4.17;;
6089;SDS011;3073;42.660;23.316;2023-07-29T06:01:46;7.83;;;4.20;;
6089;SDS011;3073;42.660;23.316;2023-07-29T06:04:13;7.40;;;3.93;;
6089;SDS011;3073;42.660;23.316;2023-07-29T06:06:40;6.40;;;4.40;;
6089;SDS011;3073;42.660;23.316;2023-07-29T06:09:07;6.97;;;4.20;;
6089;SDS011;3073;42.660;23.316;2023-07-29T06:11:34;7.27;;;4.17;;
6089;SDS011;3073;42.660;23.316;2023-07-29T06:14:02;11.13;;;6.83;;
6089;SDS011;3073;42.660;23.316;2023-07-29T06:16:29;4.90;;;4.13;;
6089;SDS011;3073;42.660;23.316;2023-07-29T06:18:56;5.90;;;3.60;;
6089;SDS011;3073;42.660;23.316;2023-07-29T06:21:23;12.75;;;4.15;;
6089;SDS011;3073;42.660;23.316;2023-07-29T06:23:51;8.98;;;4.13;;
6089;SDS011;3073;42.660;23.316;2023-07-29T06:26:18;9.25;;;4.50;;
6089;SDS011;3073;42.660;23.316;2023-07-29T06:28:45;12.23;;;4.22;;
6089;SDS011;3073;42.660;23.316;2023-07-29T06:31:13;10.10;;;4.38;;
6089;SDS011;3073;42.660;23.316;2023-07-29T06:33:40;5.88;;;4.18;;
6089;SDS011;3073;42.660;23.316;2023-07-29T06:36:06;13.90;;;4.53;;
6089;SDS011;3073;42.660;23.316;2023-07-29T06:38:33;3.53;;;3.03;;
6089;SDS011;3073;42.660;23.316;2023-07-29T06:41:01;5.50;;;3.88;;
6089;SDS011;3073;42.660;23.316;2023-07-29T06:43:27;6.85;;;4.00;;
6089;SDS011;3073;42.660;23.316;2023-07-29T06:45:54;8.50;;;4.13;;
6089;SDS011;3073;42.660;23.316;2023-07-29T06:48:22;9.98;;;4.22;;
6089;SDS011;3073;42.660;23.316;2023-07-29T06:50:50;7.28;;;4.07;;
6089;SDS011;3073;42.660;23.316;2023-07-29T06:53:17;8.88;;;5.20;;
6089;SDS011;3073;42.660;23.316;2023-07-29T06:55:44;4.78;;;4.13;;
6089;SDS011;3073;42.660;23.316;2023-07-29T06:58:11;6.63;;;3.78;;
6089;SDS011;3073;42.660;23.316;2023-07-29T07:00:38;7.28;;;2.97;;
6089;SDS011;3073;42.660;23.316;2023-07-29T07:03:05;4.80;;;3.70;;
6089;SDS011;3073;42.660;23.316;2023-07-29T07:05:33;5.28;;;3.45;;
6089;SDS011;3073;42.660;23.316;2023-07-29T07:08:00;5.22;;;3.58;;
6089;SDS011;3073;42.660;23.316;2023-07-29T07:10:27;8.18;;;3.50;;
6089;SDS011;3073;42.660;23.316;2023-07-29T07:12:54;3.95;;;3.55;;
6089;SDS011;3073;42.660;23.316;2023-07-29T07:15:20;4.30;;;3.38;;
6089;SDS011;3073;42.660;23.316;2023-07-29T07:17:47;3.35;;;2.85;;
6089;SDS011;3073;42.660;23.316;2023-07-29T07:20:14;5.63;;;3.00;;
6089;SDS011;3073;42.660;23.316;2023-07-29T07:22:43;4.25;;;3.67;;
6089;SDS011;3073;42.660;23.316;2023-07-29T07:25:10;3.25;;;2.95;;
6089;SDS011;3073;42.660;23.316;2023-07-29T07:27:36;4.10;;;3.17;;
6089;SDS011;3073;42.660;23.316;2023-07-29T07:30:06;4.82;;;3.17;;
6089;SDS011;3073;42.660;23.316;2023-07-29T07:32:34;5.93;;;3.55;;
6089;SDS011;3073;42.660;23.316;2023-07-29T07:35:01;4.15;;;3.42;;
6089;SDS011;3073;42.660;23.316;2023-07-29T07:37:29;8.10;;;3.63;;
6089;SDS011;3073;42.660;23.316;2023-07-29T07:39:57;5.25;;;3.20;;
6089;SDS011;3073;42.660;23.316;2023-07-29T07:42:24;5.38;;;3.50;;
6089;SDS011;3073;42.660;23.316;2023-07-29T07:45:07;4.32;;;3.53;;
6089;SDS011;3073;42.660;23.316;2023-07-29T07:47:34;4.95;;;3.53;;
6089;SDS011;3073;42.660;23.316;2023-07-29T07:50:01;4.80;;;3.30;;
6089;SDS011;3073;42.660;23.316;2023-07-29T07:52:28;6.10;;;3.47;;
6089;SDS011;3073;42.660;23.316;2023-07-29T07:54:55;4.97;;;3.33;;
6089;SDS011;3073;42.660;23.316;2023-07-29T07:57:21;5.03;;;3.70;;
6089;SDS011;3073;42.660;23.316;2023-07-29T07:59:48;5.00;;;3.17;;
6089;SDS011;3073;42.660;23.316;2023-07-29T08:02:18;6.25;;;3.92;;
6089;SDS011;3073;42.660;23.316;2023-07-29T08:04:45;5.63;;;3.75;;
6089;SDS011;3073;42.660;23.316;2023-07-29T08:07:12;5.80;;;3.40;;
6089;SDS011;3073;42.660;23.316;2023-07-29T08:09:39;4.22;;;3.17;;
6089;SDS011;3073;42.660;23.316;2023-07-29T08:12:08;4.10;;;3.20;;
6089;SDS011;3073;42.660;23.316;2023-07-29T08:14:34;7.85;;;4.45;;
6089;SDS011;3073;42.660;23.316;2023-07-29T08:17:01;6.97;;;3.60;;
6089;SDS011;3073;42.660;23.316;2023-07-29T08:19:29;8.38;;;4.88;;
6089;SDS011;3073;42.660;23.316;2023-07-29T08:21:56;8.90;;;3.97;;
6089;SDS011;3073;42.660;23.316;2023-07-29T08:24:23;5.55;;;3.88;;
6089;SDS011;3073;42.660;23.316;2023-07-29T08:26:50;5.13;;;4.07;;
6089;SDS011;3073;42.660;23.316;2023-07-29T08:29:17;6.03;;;3.17;;
6089;SDS011;3073;42.660;23.316;2023-07-29T08:31:44;7.10;;;3.83;;
6089;SDS011;3073;42.660;23.316;2023-07-29T08:34:10;7.05;;;3.30;;
6089;SDS011;3073;42.660;23.316;2023-07-29T08:36:39;5.63;;;3.47;;
6089;SDS011;3073;42.660;23.316;2023-07-29T08:39:05;4.60;;;2.88;;
6089;SDS011;3073;42.660;23.316;2023-07-29T08:41:34;5.47;;;3.67;;
6089;SDS011;3073;42.660;23.316;2023-07-29T08:44:06;5.57;;;3.17;;
6089;SDS011;3073;42.660;23.316;2023-07-29T08:46:36;7.47;;;3.67;;
6089;SDS011;3073;42.660;23.316;2023-07-29T08:49:03;4.35;;;2.95;;
6089;SDS011;3073;42.660;23.316;2023-07-29T08:51:30;4.55;;;3.00;;
6089;SDS011;3073;42.660;23.316;2023-07-29T08:53:59;4.20;;;3.22;;
6089;SDS011;3073;42.660;23.316;2023-07-29T08:56:27;5.75;;;2.90;;
6089;SDS011;3073;42.660;23.316;2023-07-29T08:58:55;4.63;;;2.90;;
6089;SDS011;3073;42.660;23.316;2023-07-29T09:01:22;5.75;;;2.83;;
6089;SDS011;3073;42.660;23.316;2023-07-29T09:03:54;4.05;;;2.30;;
6089;SDS011;3073;42.660;23.316;2023-07-29T09:06:21;4.78;;;2.20;;
6089;SDS011;3073;42.660;23.316;2023-07-29T09:08:48;2.38;;;1.70;;
6089;SDS011;3073;42.660;23.316;2023-07-29T09:11:18;4.18;;;2.55;;
6089;SDS011;3073;42.660;23.316;2023-07-29T09:13:45;4.10;;;2.22;;
6089;SDS011;3073;42.660;23.316;2023-07-29T09:16:12;3.75;;;2.10;;
6089;SDS011;3073;42.660;23.316;2023-07-29T09:18:40;4.30;;;2.95;;
6089;SDS011;3073;42.660;23.316;2023-07-29T09:21:07;2.40;;;1.95;;
6089;SDS011;3073;42.660;23.316;2023-07-29T09:23:41;3.58;;;2.25;;
6089;SDS011;3073;42.660;23.316;2023-07-29T09:26:08;2.38;;;1.88;;
6089;SDS011;3073;42.660;23.316;2023-07-29T09:28:37;2.10;;;1.90;;
6089;SDS011;3073;42.660;23.316;2023-07-29T09:31:05;6.22;;;2.35;;
6089;SDS011;3073;42.660;23.316;2023-07-29T09:33:33;2.90;;;2.10;;
6089;SDS011;3073;42.660;23.316;2023-07-29T09:36:02;4.93;;;2.20;;
6089;SDS011;3073;42.660;23.316;2023-07-29T09:38:29;1.80;;;1.58;;
6089;SDS011;3073;42.660;23.316;2023-07-29T09:40:56;2.75;;;2.10;;
6089;SDS011;3073;42.660;23.316;2023-07-29T09:43:29;3.00;;;1.95;;
6089;SDS011;3073;42.660;23.316;2023-07-29T09:46:00;2.30;;;1.73;;
6089;SDS011;3073;42.660;23.316;2023-07-29T09:48:32;2.70;;;1.67;;
6089;SDS011;3073;42.660;23.316;2023-07-29T09:50:59;8.02;;;1.33;;
6089;SDS011;3073;42.660;23.316;2023-07-29T09:53:26;3.97;;;2.13;;
6089;SDS011;3073;42.660;23.316;2023-07-29T09:55:53;6.95;;;1.73;;
6089;SDS011;3073;42.660;23.316;2023-07-29T09:58:25;6.40;;;1.70;;
6089;SDS011;3073;42.660;23.316;2023-07-29T10:00:53;2.30;;;2.00;;
6089;SDS011;3073;42.660;23.316;2023-07-29T10:03:22;2.42;;;1.85;;
6089;SDS011;3073;42.660;23.316;2023-07-29T10:05:50;2.30;;;2.10;;
6089;SDS011;3073;42.660;23.316;2023-07-29T10:08:17;3.80;;;1.40;;
6089;SDS011;3073;42.660;23.316;2023-07-29T10:10:45;2.15;;;1.65;;
6089;SDS011;3073;42.660;23.316;2023-07-29T10:13:12;4.65;;;1.70;;
6089;SDS011;3073;42.660;23.316;2023-07-29T10:15:40;1.60;;;1.17;;
6089;SDS011;3073;42.660;23.316;2023-07-29T10:18:07;2.15;;;1.58;;
6089;SDS011;3073;42.660;23.316;2023-07-29T10:20:35;4.75;;;1.45;;
6089;SDS011;3073;42.660;23.316;2023-07-29T10:23:02;9.88;;;4.05;;
6089;SDS011;3073;42.660;23.316;2023-07-29T10:25:36;39.08;;;16.20;;
6089;SDS011;3073;42.660;23.316;2023-07-29T10:28:06;11.15;;;6.25;;
6089;SDS011;3073;42.660;23.316;2023-07-29T10:30:34;8.15;;;3.78;;
6089;SDS011;3073;42.660;23.316;2023-07-29T10:33:02;16.83;;;8.93;;
6089;SDS011;3073;42.660;23.316;2023-07-29T10:35:30;2.70;;;1.25;;
6089;SDS011;3073;42.660;23.316;2023-07-29T10:37:59;1.50;;;1.15;;
6089;SDS011;3073;42.660;23.316;2023-07-29T10:40:41;3.92;;;1.77;;
6089;SDS011;3073;42.660;23.316;2023-07-29T10:43:10;1.70;;;1.25;;
6089;SDS011;3073;42.660;23.316;2023-07-29T10:45:40;1.77;;;1.58;;
6089;SDS011;3073;42.660;23.316;2023-07-29T10:48:10;3.35;;;2.33;;
6089;SDS011;3073;42.660;23.316;2023-07-29T10:50:37;2.40;;;1.75;;
6089;SDS011;3073;42.660;23.316;2023-07-29T10:53:06;2.40;;;1.80;;
6089;SDS011;3073;42.660;23.316;2023-07-29T10:55:33;2.08;;;1.70;;
6089;SDS011;3073;42.660;23.316;2023-07-29T10:58:05;2.30;;;1.83;;
6089;SDS011;3073;42.660;23.316;2023-07-29T11:00:34;3.45;;;1.88;;
6089;SDS011;3073;42.660;23.316;2023-07-29T11:03:01;5.93;;;1.60;;
6089;SDS011;3073;42.660;23.316;2023-07-29T11:05:46;1.95;;;1.40;;
6089;SDS011;3073;42.660;23.316;2023-07-29T11:08:22;1.90;;;1.77;;
6089;SDS011;3073;42.660;23.316;2023-07-29T11:11:01;2.30;;;1.48;;
6089;SDS011;3073;42.660;23.316;2023-07-29T11:13:32;2.38;;;1.27;;
6089;SDS011;3073;42.660;23.316;2023-07-29T11:16:00;2.33;;;1.55;;
6089;SDS011;3073;42.660;23.316;2023-07-29T11:18:28;5.00;;;1.95;;
6089;SDS011;3073;42.660;23.316;2023-07-29T11:20:56;2.67;;;1.40;;
6089;SDS011;3073;42.660;23.316;2023-07-29T11:23:29;1.40;;;1.15;;
6089;SDS011;3073;42.660;23.316;2023-07-29T11:25:57;2.25;;;1.50;;
6089;SDS011;3073;42.660;23.316;2023-07-29T11:28:24;1.92;;;1.45;;
6089;SDS011;3073;42.660;23.316;2023-07-29T11:30:51;2.17;;;1.30;;
6089;SDS011;3073;42.660;23.316;2023-07-29T11:33:20;7.95;;;1.52;;
6089;SDS011;3073;42.660;23.316;2023-07-29T11:35:47;2.92;;;1.50;;
6089;SDS011;3073;42.660;23.316;2023-07-29T11:38:17;3.05;;;1.70;;
6089;SDS011;3073;42.660;23.316;2023-07-29T11:40:54;2.00;;;1.58;;
6089;SDS011;3073;42.660;23.316;2023-07-29T11:43:22;1.40;;;1.30;;
6089;SDS011;3073;42.660;23.316;2023-07-29T11:45:49;2.25;;;1.08;;
6089;SDS011;3073;42.660;23.316;2023-07-29T11:48:17;2.42;;;1.50;;
6089;SDS011;3073;42.660;23.316;2023-07-29T11:50:45;2.03;;;1.40;;
6089;SDS011;3073;42.660;23.316;2023-07-29T11:53:12;7.65;;;1.42;;
6089;SDS011;3073;42.660;23.316;2023-07-29T11:55:39;2.10;;;1.42;;
6089;SDS011;3073;42.660;23.316;2023-07-29T11:58:08;2.83;;;1.30;;
6089;SDS011;3073;42.660;23.316;2023-07-29T12:00:38;1.42;;;1.33;;
6089;SDS011;3073;42.660;23.316;2023-07-29T12:03:06;1.92;;;1.30;;
6089;SDS011;3073;42.660;23.316;2023-07-29T12:05:35;2.60;;;1.27;;
6089;SDS011;3073;42.660;23.316;2023-07-29T12:08:02;3.00;;;1.08;;
6089;SDS011;3073;42.660;23.316;2023-07-29T12:10:29;6.00;;;1.40;;
6089;SDS011;3073;42.660;23.316;2023-07-29T12:12:56;2.35;;;1.85;;
6089;SDS011;3073;42.660;23.316;2023-07-29T12:15:25;4.50;;;1.45;;
6089;SDS011;3073;42.660;23.316;2023-07-29T12:17:53;3.10;;;1.40;;
6089;SDS011;3073;42.660;23.316;2023-07-29T12:20:24;1.80;;;1.60;;
6089;SDS011;3073;42.660;23.316;2023-07-29T12:22:54;2.05;;;1.50;;
6089;SDS011;3073;42.660;23.316;2023-07-29T12:25:23;2.05;;;1.55;;
6089;SDS011;3073;42.660;23.316;2023-07-29T12:27:50;2.42;;;1.60;;
6089;SDS011;3073;42.660;23.316;2023-07-29T12:30:19;3.88;;;1.80;;
6089;SDS011;3073;42.660;23.316;2023-07-29T12:32:48;3.63;;;1.38;;
6089;SDS011;3073;42.660;23.316;2023-07-29T12:35:15;1.60;;;1.48;;
6089;SDS011;3073;42.660;23.316;2023-07-29T12:37:42;1.50;;;1.38;;
6089;SDS011;3073;42.660;23.316;2023-07-29T12:40:20;1.70;;;1.40;;
6089;SDS011;3073;42.660;23.316;2023-07-29T12:42:48;4.38;;;2.22;;
6089;SDS011;3073;42.660;23.316;2023-07-29T12:45:15;2.88;;;1.80;;
6089;SDS011;3073;42.660;23.316;2023-07-29T12:47:42;2.00;;;1.55;;
6089;SDS011;3073;42.660;23.316;2023-07-29T12:50:10;2.22;;;1.60;;
6089;SDS011;3073;42.660;23.316;2023-07-29T12:52:37;6.03;;;1.77;;
6089;SDS011;3073;42.660;23.316;2023-07-29T12:55:05;2.25;;;1.70;;
6089;SDS011;3073;42.660;23.316;2023-07-29T12:57:33;1.83;;;1.30;;
6089;SDS011;3073;42.660;23.316;2023-07-29T13:00:02;2.50;;;1.45;;
6089;SDS011;3073;42.660;23.316;2023-07-29T13:02:29;2.60;;;1.67;;
6089;SDS011;3073;42.660;23.316;2023-07-29T13:04:56;2.63;;;1.52;;
6089;SDS011;3073;42.660;23.316;2023-07-29T13:07:24;1.83;;;1.40;;
6089;SDS011;3073;42.660;23.316;2023-07-29T13:09:51;2.30;;;1.60;;
6089;SDS011;3073;42.660;23.316;2023-07-29T13:12:18;2.25;;;1.23;;
6089;SDS011;3073;42.660;23.316;2023-07-29T13:14:45;1.30;;;1.20;;
6089;SDS011;3073;42.660;23.316;2023-07-29T13:17:12;1.80;;;1.60;;
6089;SDS011;3073;42.660;23.316;2023-07-29T13:19:38;1.98;;;1.55;;
6089;SDS011;3073;42.660;23.316;2023-07-29T13:22:05;2.83;;;1.60;;
6089;SDS011;3073;42.660;23.316;2023-07-29T13:24:33;4.80;;;1.25;;
6089;SDS011;3073;42.660;23.316;2023-07-29T13:27:01;2.90;;;1.55;;
6089;SDS011;3073;42.660;23.316;2023-07-29T13:29:28;2.58;;;1.23;;
6089;SDS011;3073;42.660;23.316;2023-07-29T13:31:55;4.25;;;1.58;;
6089;SDS011;3073;42.660;23.316;2023-07-29T13:34:22;2.10;;;1.80;;
6089;SDS011;3073;42.660;23.316;2023-07-29T13:36:49;1.95;;;1.48;;
6089;SDS011;3073;42.660;23.316;2023-07-29T13:39:15;1.63;;;1.30;;
6089;SDS011;3073;42.660;23.316;2023-07-29T13:41:44;2.38;;;1.80;;
6089;SDS011;3073;42.660;23.316;2023-07-29T13:44:11;1.80;;;1.50;;
6089;SDS011;3073;42.660;23.316;2023-07-29T13:46:37;3.55;;;1.63;;
6089;SDS011;3073;42.660;23.316;2023-07-29T13:49:04;1.73;;;1.38;;
6089;SDS011;3073;42.660;23.316;2023-07-29T13:51:31;1.73;;;1.35;;
6089;SDS011;3073;42.660;23.316;2023-07-29T13:53:58;3.17;;;1.67;;
6089;SDS011;3073;42.660;23.316;2023-07-29T13:56:25;1.95;;;1.67;;
6089;SDS011;3073;42.660;23.316;2023-07-29T13:58:56;2.00;;;1.55;;
6089;SDS011;3073;42.660;23.316;2023-07-29T14:01:23;2.08;;;1.80;;
6089;SDS011;3073;42.660;23.316;2023-07-29T14:03:50;3.53;;;2.28;;
6089;SDS011;3073;42.660;23.316;2023-07-29T14:06:17;3.47;;;2.50;;
6089;SDS011;3073;42.660;23.316;2023-07-29T14:08:44;4.53;;;1.88;;
6089;SDS011;3073;42.660;23.316;2023-07-29T14:11:11;3.80;;;2.30;;
6089;SDS011;3073;42.660;23.316;2023-07-29T14:13:38;2.67;;;2.00;;
6089;SDS011;3073;42.660;23.316;2023-07-29T14:16:06;3.33;;;1.70;;
6089;SDS011;3073;42.660;23.316;2023-07-29T14:18:33;2.42;;;1.60;;
6089;SDS011;3073;42.660;23.316;2023-07-29T14:20:59;4.30;;;1.65;;
6089;SDS011;3073;42.660;23.316;2023-07-29T14:23:26;5.10;;;1.80;;
6089;SDS011;3073;42.660;23.316;2023-07-29T14:25:53;2.42;;;1.83;;
6089;SDS011;3073;42.660;23.316;2023-07-29T14:28:20;2.42;;;1.63;;
6089;SDS011;3073;42.660;23.316;2023-07-29T14:30:47;2.35;;;1.85;;
6089;SDS011;3073;42.660;23.316;2023-07-29T14:33:16;3.50;;;1.63;;
6089;SDS011;3073;42.660;23.316;2023-07-29T14:35:45;2.72;;;1.60;;
6089;SDS011;3073;42.660;23.316;2023-07-29T14:38:12;2.10;;;1.70;;
6089;SDS011;3073;42.660;23.316;2023-07-29T14:40:38;2.53;;;1.90;;
6089;SDS011;3073;42.660;23.316;2023-07-29T14:43:05;2.15;;;1.95;;
6089;SDS011;3073;42.660;23.316;2023-07-29T14:45:32;4.88;;;1.75;;
6089;SDS011;3073;42.660;23.316;2023-07-29T14:47:59;2.92;;;1.80;;
6089;SDS011;3073;42.660;23.316;2023-07-29T14:50:27;3.13;;;2.30;;
6089;SDS011;3073;42.660;23.316;2023-07-29T14:52:54;2.10;;;1.85;;
6089;SDS011;3073;42.660;23.316;2023-07-29T14:55:20;2.60;;;1.65;;
6089;SDS011;3073;42.660;23.316;2023-07-29T14:57:47;3.15;;;2.28;;
6089;SDS011;3073;42.660;23.316;2023-07-29T15:00:14;5.25;;;4.07;;
6089;SDS011;3073;42.660;23.316;2023-07-29T15:02:41;2.30;;;2.03;;
6089;SDS011;3073;42.660;23.316;2023-07-29T15:05:08;5.72;;;2.10;;